Terminal Aerodrome Forecast
Issued by NWS

Home | Current Version | Previous Version | Text Only | Print | Product List | Glossary On
Versions: 1 2 3 4 5 6 7 8 9 10 11 12
000
FTUS46 KSEW 010500
TAFPAE
TAF
KPAE 010520Z 0106/0206 01006KT P6SM SKC
     FM011200 VRB04KT P6SM BKN150 PROB30 0116/0120 TS BKN090CB
     FM012000 33008KT P6SM BKN120
     FM020400 36008KT P6SM SCT150=

USA.gov is the U.S. government's official web portal to all federal, state and local government web resources and services.